Time,TemperatureF,DewpointF,PressureIn,WindDirection,WindDirectionDegrees,WindSpeedMPH,WindSpeedGustMPH,Humidity,HourlyPrecipIn,Conditions,Clouds,dailyrainin,SoftwareType,DateUTC
2014-01-12 00:03:00,43.3,40.9,29.48,ESE,112,0.0,-999.0,91,-99.99,,,0.00,Acu-Link.com,2014-01-12 08:03:00,
2014-01-12 00:18:00,43.5,40.8,29.50,WSW,247,2.7,-999.0,90,-99.99,,,0.00,Acu-Link.com,2014-01-12 08:18:00,
2014-01-12 00:33:00,43.5,40.8,29.51,SW,225,4.2,-999.0,90,-99.99,,,0.00,Acu-Link.com,2014-01-12 08:33:00,
2014-01-12 00:48:00,43.2,40.8,29.53,WSW,247,1.7,-999.0,91,-99.99,,,0.00,Acu-Link.com,2014-01-12 08:48:00,
2014-01-12 01:04:00,43.5,40.8,29.55,WSW,247,2.7,-999.0,90,-99.99,,,0.00,Acu-Link.com,2014-01-12 09:04:00,
2014-01-12 01:19:00,43.7,41.0,29.56,WSW,247,5.3,-999.0,90,-99.99,,,0.00,Acu-Link.com,2014-01-12 09:19:00,
2014-01-12 01:34:00,43.7,41.0,29.58,WSW,247,4.2,-999.0,90,-99.99,,,0.00,Acu-Link.com,2014-01-12 09:34:00,
2014-01-12 01:49:00,43.9,41.2,29.60,WSW,247,3.2,-999.0,90,-99.99,,,0.00,Acu-Link.com,2014-01-12 09:49:00,
2014-01-12 02:04:00,43.5,40.8,29.61,WSW,247,2.7,-999.0,90,-99.99,,,0.00,Acu-Link.com,2014-01-12 10:04:00,
2014-01-12 02:19:00,43.2,40.5,29.63,SE,135,0.0,-999.0,90,-99.99,,,0.00,Acu-Link.com,2014-01-12 10:19:00,
2014-01-12 02:34:00,42.8,40.4,29.65,WNW,292,0.0,-999.0,91,-99.99,,,0.00,Acu-Link.com,2014-01-12 10:34:00,
2014-01-12 02:49:00,42.4,40.2,29.66,SSE,157,1.1,-999.0,92,-99.99,,,0.00,Acu-Link.com,2014-01-12 10:49:00,
2014-01-12 03:04:00,42.1,40.2,29.67,SE,135,0.0,-999.0,93,-99.99,,,0.00,Acu-Link.com,2014-01-12 11:04:00,
2014-01-12 03:20:00,41.5,39.6,29.68,SE,135,0.0,-999.0,93,-99.99,,,0.01,Acu-Link.com,2014-01-12 11:20:00,
2014-01-12 03:35:00,41.5,39.6,29.69,South,180,0.0,-999.0,93,-99.99,,,0.01,Acu-Link.com,2014-01-12 11:35:00,
2014-01-12 03:50:00,41.2,39.6,29.70,ESE,112,0.0,-999.0,94,-99.99,,,0.01,Acu-Link.com,2014-01-12 11:50:00,
2014-01-12 04:05:00,41.0,39.4,29.72,SE,135,0.0,-999.0,94,-99.99,,,0.01,Acu-Link.com,2014-01-12 12:05:00,
2014-01-12 04:20:00,40.6,38.7,29.72,SSE,157,1.1,-999.0,93,-99.99,,,0.01,Acu-Link.com,2014-01-12 12:20:00,
2014-01-12 04:35:00,40.8,38.4,29.73,South,180,2.7,-999.0,91,-99.99,,,0.01,Acu-Link.com,2014-01-12 12:35:00,
2014-01-12 04:51:00,40.5,37.5,29.74,South,180,2.2,-999.0,89,-99.99,,,0.01,Acu-Link.com,2014-01-12 12:51:00,
2014-01-12 05:06:00,39.9,37.5,29.74,ESE,112,2.2,-999.0,91,-99.99,,,0.01,Acu-Link.com,2014-01-12 13:06:00,
2014-01-12 05:21:00,39.6,37.5,29.75,ESE,112,0.0,-999.0,92,-99.99,,,0.01,Acu-Link.com,2014-01-12 13:21:00,
2014-01-12 05:36:00,40.1,37.7,29.75,ESE,112,2.7,-999.0,91,-99.99,,,0.01,Acu-Link.com,2014-01-12 13:36:00,
2014-01-12 05:51:00,40.6,37.9,29.76,SE,135,3.2,-999.0,90,-99.99,,,0.01,Acu-Link.com,2014-01-12 13:51:00,
2014-01-12 06:06:00,42.3,38.7,29.77,SW,225,3.7,-999.0,87,-99.99,,,0.01,Acu-Link.com,2014-01-12 14:06:00,
2014-01-12 06:21:00,42.4,38.8,29.78,SSE,157,4.2,-999.0,87,-99.99,,,0.01,Acu-Link.com,2014-01-12 14:21:00,
2014-01-12 06:36:00,42.4,39.1,29.79,ESE,112,2.7,-999.0,88,-99.99,,,0.01,Acu-Link.com,2014-01-12 14:36:00,
2014-01-12 06:51:00,42.4,38.8,29.79,ESE,112,4.7,-999.0,87,-99.99,,,0.01,Acu-Link.com,2014-01-12 14:51:00,
2014-01-12 07:06:00,41.9,38.9,29.79,SW,225,0.0,-999.0,89,-99.99,,,0.01,Acu-Link.com,2014-01-12 15:06:00,
2014-01-12 07:22:00,41.2,38.8,29.80,South,180,0.0,-999.0,91,-99.99,,,0.02,Acu-Link.com,2014-01-12 15:22:00,
2014-01-12 07:37:00,40.6,38.7,29.79,ENE,67,0.0,-999.0,93,-99.99,,,0.03,Acu-Link.com,2014-01-12 15:37:00,
2014-01-12 07:52:00,40.3,39.0,29.80,SE,135,1.7,-999.0,95,-99.99,,,0.05,Acu-Link.com,2014-01-12 15:52:00,
2014-01-12 08:07:00,40.3,39.5,29.80,ESE,112,2.7,-999.0,97,-99.99,,,0.06,Acu-Link.com,2014-01-12 16:07:00,
2014-01-12 08:22:00,40.3,39.8,29.81,SE,135,1.7,-999.0,98,-99.99,,,0.09,Acu-Link.com,2014-01-12 16:22:00,
2014-01-12 08:37:00,40.1,39.6,29.81,ESE,112,3.7,-999.0,98,-99.99,,,0.10,Acu-Link.com,2014-01-12 16:37:00,
2014-01-12 08:52:00,39.9,39.4,29.81,South,180,2.2,-999.0,98,-99.99,,,0.12,Acu-Link.com,2014-01-12 16:52:00,
2014-01-12 09:07:00,39.9,39.4,29.81,ESE,112,2.2,-999.0,98,-99.99,,,0.13,Acu-Link.com,2014-01-12 17:07:00,
2014-01-12 09:22:00,40.1,39.6,29.82,SSE,157,1.7,-999.0,98,-99.99,,,0.14,Acu-Link.com,2014-01-12 17:22:00,
2014-01-12 09:38:00,40.3,39.8,29.82,East,90,2.7,-999.0,98,-99.99,,,0.14,Acu-Link.com,2014-01-12 17:38:00,
2014-01-12 09:53:00,40.8,40.0,29.84,ESE,112,3.7,-999.0,97,-99.99,,,0.14,Acu-Link.com,2014-01-12 17:53:00,
2014-01-12 10:08:00,40.8,39.2,29.83,ESE,112,5.3,-999.0,94,-99.99,,,0.15,Acu-Link.com,2014-01-12 18:08:00,
2014-01-12 10:23:00,41.0,39.4,29.83,SE,135,4.7,-999.0,94,-99.99,,,0.15,Acu-Link.com,2014-01-12 18:23:00,
2014-01-12 10:38:00,41.7,40.4,29.83,SSE,157,8.9,-999.0,95,-99.99,,,0.16,Acu-Link.com,2014-01-12 18:38:00,
2014-01-12 10:53:00,42.1,40.2,29.83,ESE,112,6.8,-999.0,93,-99.99,,,0.16,Acu-Link.com,2014-01-12 18:53:00,
2014-01-12 11:08:00,42.1,39.7,29.83,SSE,157,5.8,-999.0,91,-99.99,,,0.16,Acu-Link.com,2014-01-12 19:08:00,
2014-01-12 11:23:00,41.9,39.5,29.83,SSE,157,7.3,-999.0,91,-99.99,,,0.16,Acu-Link.com,2014-01-12 19:23:00,
2014-01-12 11:38:00,42.1,39.7,29.83,SSE,157,4.7,-999.0,91,-99.99,,,0.16,Acu-Link.com,2014-01-12 19:38:00,
2014-01-12 11:54:00,42.4,40.0,29.83,ESE,112,4.7,-999.0,91,-99.99,,,0.16,Acu-Link.com,2014-01-12 19:54:00,
2014-01-12 12:09:00,43.2,40.8,29.84,SSW,202,4.7,-999.0,91,-99.99,,,0.16,Acu-Link.com,2014-01-12 20:09:00,
2014-01-12 12:24:00,43.0,41.1,29.83,SSW,202,4.7,-999.0,93,-99.99,,,0.16,Acu-Link.com,2014-01-12 20:24:00,
2014-01-12 12:39:00,43.0,41.7,29.83,SSW,202,4.7,-999.0,95,-99.99,,,0.17,Acu-Link.com,2014-01-12 20:39:00,
2014-01-12 12:54:00,43.0,41.9,29.81,SSE,157,4.7,-999.0,96,-99.99,,,0.18,Acu-Link.com,2014-01-12 20:54:00,
2014-01-12 13:09:00,43.2,42.1,29.80,South,180,5.3,-999.0,96,-99.99,,,0.19,Acu-Link.com,2014-01-12 21:09:00,
2014-01-12 13:25:00,43.3,42.2,29.79,ESE,112,5.8,-999.0,96,-99.99,,,0.19,Acu-Link.com,2014-01-12 21:25:00,
2014-01-12 13:40:00,43.2,42.1,29.78,SSW,202,5.3,-999.0,96,-99.99,,,0.19,Acu-Link.com,2014-01-12 21:40:00,
2014-01-12 13:55:00,43.5,42.4,29.78,SSE,157,4.7,-999.0,96,-99.99,,,0.19,Acu-Link.com,2014-01-12 21:55:00,
2014-01-12 14:10:00,43.7,42.6,29.78,SSE,157,3.2,-999.0,96,-99.99,,,0.19,Acu-Link.com,2014-01-12 22:10:00,
2014-01-12 14:25:00,44.2,43.1,29.80,SSE,157,5.8,-999.0,96,-99.99,,,0.19,Acu-Link.com,2014-01-12 22:25:00,
2014-01-12 14:40:00,44.6,43.5,29.81,SSE,157,3.7,-999.0,96,-99.99,,,0.19,Acu-Link.com,2014-01-12 22:40:00,
2014-01-12 14:55:00,45.0,43.9,29.81,SSW,202,3.7,-999.0,96,-99.99,,,0.19,Acu-Link.com,2014-01-12 22:55:00,
2014-01-12 15:10:00,45.5,44.2,29.80,SSE,157,7.8,-999.0,95,-99.99,,,0.19,Acu-Link.com,2014-01-12 23:10:00,
2014-01-12 15:25:00,45.5,44.2,29.80,SSE,157,8.3,-999.0,95,-99.99,,,0.19,Acu-Link.com,2014-01-12 23:25:00,
2014-01-12 15:41:00,45.7,44.6,29.81,South,180,6.3,-999.0,96,-99.99,,,0.19,Acu-Link.com,2014-01-12 23:41:00,
2014-01-12 15:56:00,45.9,44.8,29.82,SW,225,5.3,-999.0,96,-99.99,,,0.20,Acu-Link.com,2014-01-12 23:56:00,
2014-01-12 16:11:00,46.0,45.2,29.82,SSE,157,9.4,-999.0,97,-99.99,,,0.22,Acu-Link.com,2014-01-13 00:11:00,
2014-01-12 16:26:00,46.2,45.4,29.84,SE,135,9.9,-999.0,97,-99.99,,,0.22,Acu-Link.com,2014-01-13 00:26:00,
2014-01-12 16:41:00,46.6,45.2,29.84,SSE,157,6.3,-999.0,95,-99.99,,,0.22,Acu-Link.com,2014-01-13 00:41:00,
2014-01-12 16:56:00,46.6,45.5,29.83,South,180,7.8,-999.0,96,-99.99,,,0.22,Acu-Link.com,2014-01-13 00:56:00,
2014-01-12 17:11:00,46.9,45.8,29.85,South,180,6.3,-999.0,96,-99.99,,,0.22,Acu-Link.com,2014-01-13 01:11:00,
2014-01-12 17:26:00,47.3,46.2,29.85,SSW,202,8.9,-999.0,96,-99.99,,,0.22,Acu-Link.com,2014-01-13 01:26:00,
2014-01-12 17:41:00,47.3,46.5,29.84,ESE,112,7.3,-999.0,97,-99.99,,,0.22,Acu-Link.com,2014-01-13 01:41:00,
2014-01-12 17:57:00,47.5,46.7,29.84,South,180,8.9,-999.0,97,-99.99,,,0.22,Acu-Link.com,2014-01-13 01:57:00,
2014-01-12 18:12:00,47.7,46.3,29.84,SSW,202,5.8,-999.0,95,-99.99,,,0.22,Acu-Link.com,2014-01-13 02:12:00,
2014-01-12 18:27:00,48.2,46.3,29.84,SSW,202,6.8,-999.0,93,-99.99,,,0.22,Acu-Link.com,2014-01-13 02:27:00,
2014-01-12 18:42:00,48.6,46.7,29.85,WSW,247,8.3,-999.0,93,-99.99,,,0.22,Acu-Link.com,2014-01-13 02:42:00,
2014-01-12 18:57:00,48.6,46.4,29.86,ESE,112,5.3,-999.0,92,-99.99,,,0.22,Acu-Link.com,2014-01-13 02:57:00,
2014-01-12 19:12:00,48.7,46.2,29.87,SSE,157,7.3,-999.0,91,-99.99,,,0.22,Acu-Link.com,2014-01-13 03:12:00,
2014-01-12 19:27:00,48.7,45.9,29.88,ESE,112,3.7,-999.0,90,-99.99,,,0.22,Acu-Link.com,2014-01-13 03:27:00,
2014-01-12 19:42:00,49.1,46.0,29.87,SSE,157,8.9,-999.0,89,-99.99,,,0.22,Acu-Link.com,2014-01-13 03:42:00,
2014-01-12 19:57:00,48.7,46.2,29.88,East,90,5.3,-999.0,91,-99.99,,,0.22,Acu-Link.com,2014-01-13 03:57:00,
2014-01-12 20:13:00,48.7,46.2,29.89,SSE,157,5.8,-999.0,91,-99.99,,,0.22,Acu-Link.com,2014-01-13 04:13:00,
2014-01-12 20:28:00,48.7,46.5,29.89,SE,135,8.3,-999.0,92,-99.99,,,0.22,Acu-Link.com,2014-01-13 04:28:00,
2014-01-12 20:43:00,48.6,46.7,29.89,SE,135,7.8,-999.0,93,-99.99,,,0.22,Acu-Link.com,2014-01-13 04:43:00,
2014-01-12 20:58:00,48.6,46.7,29.90,ESE,112,6.8,-999.0,93,-99.99,,,0.22,Acu-Link.com,2014-01-13 04:58:00,
2014-01-12 21:13:00,48.2,46.3,29.90,South,180,5.8,-999.0,93,-99.99,,,0.22,Acu-Link.com,2014-01-13 05:13:00,
2014-01-12 21:28:00,48.6,46.7,29.90,SSW,202,8.3,-999.0,93,-99.99,,,0.22,Acu-Link.com,2014-01-13 05:28:00,
2014-01-12 21:43:00,48.6,46.7,29.91,ESE,112,4.7,-999.0,93,-99.99,,,0.22,Acu-Link.com,2014-01-13 05:43:00,
2014-01-12 21:58:00,49.1,46.6,29.92,South,180,5.8,-999.0,91,-99.99,,,0.22,Acu-Link.com,2014-01-13 05:58:00,
2014-01-12 22:14:00,49.3,46.5,29.93,ESE,112,7.3,-999.0,90,-99.99,,,0.22,Acu-Link.com,2014-01-13 06:14:00,
2014-01-12 22:29:00,49.6,46.8,29.93,South,180,5.3,-999.0,90,-99.99,,,0.22,Acu-Link.com,2014-01-13 06:29:00,
2014-01-12 22:44:00,49.8,47.0,29.93,South,180,7.3,-999.0,90,-99.99,,,0.22,Acu-Link.com,2014-01-13 06:44:00,
2014-01-12 22:59:00,48.7,46.2,29.94,SSE,157,6.3,-999.0,91,-99.99,,,0.22,Acu-Link.com,2014-01-13 06:59:00,
2014-01-12 23:14:00,48.9,46.4,29.95,SSE,157,8.3,-999.0,91,-99.99,,,0.22,Acu-Link.com,2014-01-13 07:14:00,
2014-01-12 23:29:00,49.1,46.6,29.96,South,180,10.4,-999.0,91,-99.99,,,0.22,Acu-Link.com,2014-01-13 07:29:00,
2014-01-12 23:44:00,49.3,46.8,29.97,SSE,157,10.4,-999.0,91,-99.99,,,0.22,Acu-Link.com,2014-01-13 07:44:00,
2014-01-12 23:59:00,49.1,46.9,29.97,SE,135,11.9,-999.0,92,-99.99,,,0.22,Acu-Link.com,2014-01-13 07:59:00,